Check out our new BloomSky Weather System.

Active alerts


No alerts


Thunder radar  blitzortung!


Rain radar more information rain snow radar


Visit our other weather sites:

Template documentation
and downloads

And another site



Weather Underground History page Text

Daily Summary for February 17, 2017 Units:  Metric    English   Both
« Previous Day
Next Day »
Daily Weekly Monthly Yearly Custom
  High: Low: Average:
Temperature: 19.6 °C 8.8 °C 14.3 °C
Dew Point: 16.4 °C 6.3 °C 12.4 °C
Humidity: 96 % 74 % 88 %
Wind Speed: 16.1 km/h 0 km/h 2.9 km/h
Wind Gust: 20.9 km/h - -
Wind:- - SE
Pressure: 1016.5 hPa 1009 hPa -
Precipitation: 2.03 mm    
Historical Graphs
 
 
Tabular Data for February 17, 2017
Time Temperature Dew Point Pressure Wind Wind Speed Wind Gust Humidity Rainfall Rate (Hourly)
00:02 10.9 °C 6.4 °C 1016.5 hPa Calm     74 % 0 mm
00:07 10.8 °C 6.5 °C 1016.5 hPa Calm     75 % 0 mm
00:12 10.7 °C 6.6 °C 1016.5 hPa Calm     76 % 0 mm
00:17 10.6 °C 6.7 °C 1016.1 hPa Calm     77 % 0 mm
00:22 10.4 °C 6.5 °C 1016.1 hPa Calm     77 % 0 mm
00:27 10.3 °C 6.4 °C 1016.1 hPa Calm     77 % 0 mm
00:32 10.2 °C 6.7 °C 1016.1 hPa Calm     79 % 0 mm
00:37 10.1 °C 6.6 °C 1016.1 hPa Calm     79 % 0 mm
00:42 9.8 °C 6.3 °C 1016.1 hPa Calm     79 % 0 mm
00:47 9.6 °C 6.3 °C 1016.1 hPa Calm     80 % 0 mm
00:52 9.5 °C 6.4 °C 1016.1 hPa Calm     81 % 0 mm
00:57 9.4 °C 6.5 °C 1016.1 hPa Calm     82 % 0 mm
01:02 9.4 °C 6.7 °C 1016.1 hPa Calm     83 % 0 mm
01:07 9.4 °C 6.7 °C 1016.1 hPa Calm     83 % 0 mm
01:12 9.6 °C 7 °C 1016.1 hPa Calm     84 % 0 mm
01:17 9.8 °C 7.1 °C 1016.1 hPa Calm   1.6 km/h 83 % 0 mm
01:22 9.8 °C 6.9 °C 1015.8 hPa Calm   1.6 km/h 82 % 0 mm
01:27 9.8 °C 6.9 °C 1015.8 hPa Calm   1.6 km/h 82 % 0 mm
01:32 9.7 °C 6.8 °C 1015.8 hPa Calm   1.6 km/h 82 % 0 mm
01:37 9.5 °C 6.6 °C 1015.8 hPa Calm   1.6 km/h 82 % 0 mm
01:42 9.4 °C 6.5 °C 1015.8 hPa Calm   1.6 km/h 82 % 0 mm
01:47 9.3 °C 6.6 °C 1015.8 hPa Calm     83 % 0 mm
01:52 9.3 °C 6.6 °C 1015.8 hPa Calm     83 % 0 mm
01:57 9.2 °C 6.6 °C 1015.5 hPa Calm     84 % 0 mm
02:02 9.2 °C 6.6 °C 1015.5 hPa Calm     84 % 0 mm
02:07 9.1 °C 6.5 °C 1015.5 hPa Calm     84 % 0 mm
02:13 9 °C 6.6 °C 1015.5 hPa Calm     85 % 0 mm
02:17 8.9 °C 6.5 °C 1015.5 hPa Calm     85 % 0 mm
02:23 8.8 °C 6.4 °C 1015.5 hPa Calm     85 % 0 mm
02:28 8.8 °C 6.4 °C 1015.1 hPa Calm     85 % 0 mm
02:33 8.8 °C 6.8 °C 1015.1 hPa Calm   1.6 km/h 87 % 0 mm
02:38 8.8 °C 6.8 °C 1014.8 hPa Calm   1.6 km/h 87 % 0 mm
02:43 8.9 °C 6.9 °C 1014.4 hPa Calm   1.6 km/h 87 % 0 mm
02:48 9 °C 7 °C 1014.8 hPa Calm   1.6 km/h 87 % 0 mm
02:53 9.1 °C 7.1 °C 1014.8 hPa Calm   1.6 km/h 87 % 0 mm
02:58 9.1 °C 7.1 °C 1014.8 hPa Calm     87 % 0 mm
03:03 9.1 °C 7.1 °C 1014.8 hPa Calm     87 % 0 mm
03:08 9.1 °C 7.1 °C 1014.8 hPa Calm     87 % 0 mm
03:13 9.1 °C 7.1 °C 1014.8 hPa Calm     87 % 0 mm
03:18 9.2 °C 7.3 °C 1015.1 hPa Calm     88 % 0 mm
03:23 9.3 °C 7.2 °C 1015.1 hPa Calm     87 % 0 mm
03:28 9.5 °C 7.4 °C 1014.8 hPa Calm     87 % 0 mm
03:33 9.7 °C 7.6 °C 1014.8 hPa Calm     87 % 0 mm
03:38 9.8 °C 7.7 °C 1014.8 hPa Calm     87 % 0 mm
03:43 9.8 °C 7.6 °C 1014.8 hPa Calm     86 % 0 mm
03:48 9.9 °C 7.7 °C 1014.8 hPa Calm     86 % 0 mm
03:53 9.9 °C 7.7 °C 1014.8 hPa Calm     86 % 0 mm
03:58 9.8 °C 7.6 °C 1014.8 hPa Calm     86 % 0 mm
04:03 9.9 °C 7.7 °C 1014.8 hPa Calm     86 % 0 mm
04:08 9.9 °C 7.7 °C 1014.8 hPa Calm     86 % 0 mm
04:13 9.9 °C 7.7 °C 1015.1 hPa Calm     86 % 0 mm
04:18 9.9 °C 7.7 °C 1015.1 hPa Calm     86 % 0 mm
04:23 10 °C 7.8 °C 1015.1 hPa Calm     86 % 0 mm
04:28 10.1 °C 7.7 °C 1014.8 hPa Calm   1.6 km/h 85 % 0 mm
04:33 10.2 °C 8 °C 1014.8 hPa Calm   1.6 km/h 86 % 0 mm
04:38 10.3 °C 7.9 °C 1014.8 hPa Calm   1.6 km/h 85 % 0 mm
04:43 10.4 °C 8 °C 1014.8 hPa Calm   1.6 km/h 85 % 0 mm
04:48 10.4 °C 8 °C 1014.4 hPa Calm   1.6 km/h 85 % 0 mm
04:53 10.6 °C 8.2 °C 1014.8 hPa Calm   1.6 km/h 85 % 0 mm
04:59 10.6 °C 8.2 °C 1014.8 hPa Calm   1.6 km/h 85 % 0 mm
05:04 10.7 °C 8.3 °C 1014.8 hPa Calm   1.6 km/h 85 % 0 mm
05:09 10.8 °C 8.4 °C 1014.8 hPa Calm   1.6 km/h 85 % 0 mm
05:14 10.9 °C 8.3 °C 1014.4 hPa Calm   1.6 km/h 84 % 0 mm
05:19 11 °C 8.4 °C 1014.1 hPa Calm   1.6 km/h 84 % 0 mm
05:24 11.1 °C 8.5 °C 1014.1 hPa Calm   1.6 km/h 84 % 0 mm
05:29 11.1 °C 8.5 °C 1014.4 hPa ESE 1.6 km/h 1.6 km/h 84 % 0 mm
05:34 11.1 °C 8.5 °C 1014.8 hPa SSW 1.6 km/h 1.6 km/h 84 % 0 mm
05:39 11.2 °C 8.6 °C 1014.8 hPa SE 1.6 km/h 3.2 km/h 84 % 0 mm
05:44 11.3 °C 8.7 °C 1014.8 hPa Calm   3.2 km/h 84 % 0 mm
05:49 11.4 °C 8.8 °C 1014.4 hPa Calm   3.2 km/h 84 % 0 mm
05:54 11.4 °C 8.8 °C 1014.4 hPa Calm   3.2 km/h 84 % 0 mm
05:59 11.4 °C 8.8 °C 1015.1 hPa SSW 1.6 km/h 1.6 km/h 84 % 0 mm
06:04 11.4 °C 8.8 °C 1014.8 hPa SSW 1.6 km/h 3.2 km/h 84 % 0 mm
06:09 11.6 °C 9 °C 1015.1 hPa SSW 1.6 km/h 3.2 km/h 84 % 0 mm
06:14 11.6 °C 9 °C 1015.5 hPa Calm   3.2 km/h 84 % 0 mm
06:19 11.7 °C 9.1 °C 1015.5 hPa Calm   3.2 km/h 84 % 0 mm
06:24 11.7 °C 9.1 °C 1014.8 hPa Calm   3.2 km/h 84 % 0 mm
06:29 11.7 °C 9.3 °C 1014.8 hPa Calm   1.6 km/h 85 % 0 mm
06:34 11.7 °C 9.3 °C 1014.4 hPa NW 1.6 km/h 1.6 km/h 85 % 0 mm
06:39 11.6 °C 9.5 °C 1014.4 hPa NW 3.2 km/h 3.2 km/h 87 % 0.51 mm
06:44 11.5 °C 9.6 °C 1014.4 hPa WNW 3.2 km/h 3.2 km/h 88 % 0.76 mm
06:49 11.3 °C 9.7 °C 1014.4 hPa Calm   4.8 km/h 90 % 1.02 mm
06:54 11.2 °C 9.6 °C 1014.8 hPa Calm   4.8 km/h 90 % 1.02 mm
06:59 11.2 °C 9.6 °C 1014.8 hPa Calm   4.8 km/h 90 % 1.27 mm
07:04 11.2 °C 9.8 °C 1015.1 hPa SSE 1.6 km/h 3.2 km/h 91 % 1.27 mm
07:09 11.2 °C 9.8 °C 1015.1 hPa Calm   1.6 km/h 91 % 1.27 mm
07:14 11.2 °C 9.9 °C 1015.1 hPa NE 1.6 km/h 1.6 km/h 92 % 1.27 mm
07:20 11.3 °C 10 °C 1015.1 hPa Calm   1.6 km/h 92 % 1.27 mm
07:25 11.4 °C 10.1 °C 1015.1 hPa Calm   3.2 km/h 92 % 1.27 mm
07:30 11.4 °C 10.1 °C 1015.1 hPa Calm   3.2 km/h 92 % 1.27 mm
07:35 11.4 °C 10.3 °C 1015.1 hPa SE 1.6 km/h 3.2 km/h 93 % 0.76 mm
07:40 11.5 °C 10.4 °C 1014.8 hPa Calm   1.6 km/h 93 % 0.51 mm
07:45 11.6 °C 10.5 °C 1015.1 hPa Calm   1.6 km/h 93 % 0.25 mm
07:50 11.7 °C 10.6 °C 1015.1 hPa Calm   1.6 km/h 93 % 0.25 mm
07:55 11.8 °C 10.9 °C 1015.1 hPa Calm   3.2 km/h 94 % 0 mm
08:00 11.9 °C 11 °C 1015.1 hPa ENE 1.6 km/h 3.2 km/h 94 % 0 mm
08:05 11.9 °C 11 °C 1015.1 hPa NE 1.6 km/h 3.2 km/h 94 % 0 mm
08:10 12.1 °C 11.2 °C 1015.1 hPa Calm   1.6 km/h 94 % 0 mm
08:15 12.2 °C 11.3 °C 1015.1 hPa Calm   1.6 km/h 94 % 0 mm
08:20 12.3 °C 11.4 °C 1015.1 hPa Calm   1.6 km/h 94 % 0 mm
08:25 12.4 °C 11.5 °C 1015.5 hPa Calm   1.6 km/h 94 % 0 mm
08:30 12.4 °C 11.5 °C 1015.5 hPa Calm   1.6 km/h 94 % 0 mm
08:35 12.4 °C 11.5 °C 1015.5 hPa Calm   1.6 km/h 94 % 0 mm
08:40 12.5 °C 11.6 °C 1015.5 hPa Calm   1.6 km/h 94 % 0 mm
08:45 12.6 °C 11.7 °C 1015.5 hPa Calm   1.6 km/h 94 % 0 mm
08:50 12.7 °C 11.8 °C 1015.5 hPa Calm   1.6 km/h 94 % 0 mm
08:56 12.8 °C 11.9 °C 1015.5 hPa Calm   1.6 km/h 94 % 0 mm
09:01 12.9 °C 12 °C 1015.1 hPa Calm   3.2 km/h 94 % 0 mm
09:06 13.1 °C 12.2 °C 1015.1 hPa Calm   3.2 km/h 94 % 0 mm
09:11 13.4 °C 12.8 °C 1015.1 hPa NE 1.6 km/h 3.2 km/h 96 % 0 mm
09:16 13.7 °C 12.8 °C 1014.8 hPa NE 1.6 km/h 4.8 km/h 94 % 0 mm
09:21 13.8 °C 12.9 °C 1014.8 hPa Calm   4.8 km/h 94 % 0 mm
09:26 14.1 °C 13.1 °C 1014.1 hPa NNW 1.6 km/h 8 km/h 94 % 0 mm
09:31 14.4 °C 13.4 °C 1014.4 hPa ENE 3.2 km/h 8 km/h 94 % 0 mm
09:36 14.7 °C 13.6 °C 1014.4 hPa ENE 6.4 km/h 8 km/h 93 % 0 mm
09:41 15.2 °C 13.9 °C 1014.1 hPa NE 6.4 km/h 8 km/h 92 % 0 mm
09:46 15.6 °C 14 °C 1014.4 hPa ESE 4.8 km/h 9.7 km/h 90 % 0 mm
09:51 16 °C 14.2 °C 1014.4 hPa East 1.6 km/h 9.7 km/h 89 % 0 mm
09:56 16.6 °C 14.6 °C 1014.4 hPa ESE 6.4 km/h 9.7 km/h 88 % 0 mm
10:01 16.9 °C 14.2 °C 1014.4 hPa ESE 3.2 km/h 9.7 km/h 84 % 0 mm
10:06 17.1 °C 14.2 °C 1014.4 hPa SE 4.8 km/h 9.7 km/h 83 % 0 mm
10:11 17.3 °C 14.2 °C 1014.4 hPa ESE 6.4 km/h 9.7 km/h 82 % 0 mm
10:16 17.6 °C 14.1 °C 1014.8 hPa SSE 1.6 km/h 11.3 km/h 80 % 0 mm
10:21 17.9 °C 14 °C 1014.4 hPa SE 3.2 km/h 11.3 km/h 78 % 0 mm
10:26 18 °C 13.7 °C 1014.8 hPa SE 4.8 km/h 11.3 km/h 76 % 0 mm
10:31 18.1 °C 13.6 °C 1014.4 hPa SE 3.2 km/h 8 km/h 75 % 0 mm
10:36 18.2 °C 13.7 °C 1014.4 hPa SSE 9.7 km/h 9.7 km/h 75 % 0 mm
10:41 18.2 °C 13.7 °C 1014.4 hPa SSE 1.6 km/h 11.3 km/h 75 % 0 mm
10:46 18.2 °C 13.7 °C 1014.4 hPa SE 3.2 km/h 11.3 km/h 75 % 0 mm
10:51 18.3 °C 13.8 °C 1014.4 hPa SSE 3.2 km/h 11.3 km/h 75 % 0 mm
10:56 18.4 °C 13.9 °C 1014.4 hPa SE 1.6 km/h 11.3 km/h 75 % 0 mm
11:01 18.6 °C 14.1 °C 1014.8 hPa South 3.2 km/h 9.7 km/h 75 % 0 mm
11:06 18.7 °C 14.2 °C 1014.8 hPa SSW 6.4 km/h 9.7 km/h 75 % 0 mm
11:11 18.7 °C 14.2 °C 1014.4 hPa SSE 4.8 km/h 9.7 km/h 75 % 0 mm
11:12 18.7 °C 14.2 °C 1014.4 hPa SSE 3.2 km/h 9.7 km/h 75 % 0 mm
11:17 18.9 °C 14.4 °C 1014.4 hPa ESE 6.4 km/h 9.7 km/h 75 % 0 mm
11:22 19 °C 14.7 °C 1014.1 hPa SW 6.4 km/h 11.3 km/h 76 % 0 mm
11:27 19.2 °C 14.7 °C 1014.1 hPa SSE 4.8 km/h 11.3 km/h 75 % 0 mm
11:32 19.3 °C 14.8 °C 1014.1 hPa East 9.7 km/h 12.9 km/h 75 % 0 mm
11:37 19.3 °C 15 °C 1013.8 hPa SSW 8 km/h 14.5 km/h 76 % 0 mm
11:42 19.5 °C 15.2 °C 1013.8 hPa SE 8 km/h 14.5 km/h 76 % 0 mm
11:47 19.6 °C 15 °C 1013.8 hPa SSE 9.7 km/h 14.5 km/h 75 % 0 mm
11:52 19.6 °C 15 °C 1013.4 hPa East 4.8 km/h 12.9 km/h 75 % 0 mm
11:57 19.6 °C 15 °C 1013.4 hPa SSE 8 km/h 11.3 km/h 75 % 0 mm
12:02 19.6 °C 15.3 °C 1013.1 hPa SE 6.4 km/h 12.9 km/h 76 % 0 mm
12:07 19.6 °C 15 °C 1012.8 hPa ESE 11.3 km/h 14.5 km/h 75 % 0 mm
12:12 19.4 °C 14.9 °C 1012.8 hPa SSE 6.4 km/h 14.5 km/h 75 % 0 mm
12:17 19.3 °C 15 °C 1013.1 hPa SE 4.8 km/h 14.5 km/h 76 % 0 mm
12:22 19.4 °C 15.1 °C 1013.1 hPa SSE 6.4 km/h 14.5 km/h 76 % 0 mm
12:27 19.5 °C 15.2 °C 1013.1 hPa SSE 3.2 km/h 12.9 km/h 76 % 0 mm
12:32 19.4 °C 15.1 °C 1012.8 hPa SSE 4.8 km/h 16.1 km/h 76 % 0 mm
12:37 19.3 °C 15 °C 1012.8 hPa SE 4.8 km/h 16.1 km/h 76 % 0 mm
12:42 19.3 °C 15.2 °C 1012.8 hPa SSE 6.4 km/h 16.1 km/h 77 % 0 mm
12:47 19.3 °C 15.2 °C 1012.4 hPa SE 6.4 km/h 14.5 km/h 77 % 0 mm
12:52 19.1 °C 15 °C 1012.4 hPa South 12.9 km/h 19.3 km/h 77 % 0 mm
12:57 19 °C 15.3 °C 1011.7 hPa SE 4.8 km/h 19.3 km/h 79 % 0 mm
13:02 18.8 °C 15.5 °C 1011.7 hPa East 4.8 km/h 19.3 km/h 81 % 0 mm
13:07 18.4 °C 15.5 °C 1011.7 hPa SE 8 km/h 16.1 km/h 83 % 0 mm
13:12 18.3 °C 15.7 °C 1011.7 hPa SE 4.8 km/h 14.5 km/h 85 % 0 mm
13:17 18.1 °C 15.7 °C 1012.1 hPa SE 6.4 km/h 14.5 km/h 86 % 0.25 mm
13:22 17.9 °C 15.7 °C 1011.7 hPa SE 1.6 km/h 14.5 km/h 87 % 0.25 mm
13:27 17.7 °C 15.7 °C 1011.1 hPa ENE 3.2 km/h 14.5 km/h 88 % 0.25 mm
13:32 17.6 °C 15.8 °C 1009.4 hPa ENE 16.1 km/h 19.3 km/h 89 % 0.51 mm
13:37 17.3 °C 15.6 °C 1010.4 hPa ESE 8 km/h 19.3 km/h 90 % 0.51 mm
13:42 17.3 °C 15.6 °C 1011.1 hPa South 9.7 km/h 19.3 km/h 90 % 0.51 mm
13:47 17.2 °C 15.7 °C 1011.1 hPa South 3.2 km/h 16.1 km/h 91 % 0.51 mm
13:52 17.2 °C 15.7 °C 1011.1 hPa South 3.2 km/h 16.1 km/h 91 % 0.51 mm
13:57 17.1 °C 15.8 °C 1011.1 hPa SSW 4.8 km/h 12.9 km/h 92 % 0.51 mm
14:02 17.1 °C 15.8 °C 1011.1 hPa SSW 1.6 km/h 9.7 km/h 92 % 0.51 mm
14:07 17.1 °C 15.8 °C 1011.1 hPa Calm   9.7 km/h 92 % 0.76 mm
14:12 17.1 °C 16 °C 1010.7 hPa Calm   6.4 km/h 93 % 0.76 mm
14:17 17.1 °C 16 °C 1010.7 hPa Calm   6.4 km/h 93 % 0.51 mm
14:22 17.2 °C 16.1 °C 1010.7 hPa SSW 1.6 km/h 3.2 km/h 93 % 0.51 mm
14:27 17.2 °C 15.9 °C 1010.7 hPa SSE 3.2 km/h 3.2 km/h 92 % 0.51 mm
14:32 17.2 °C 16.1 °C 1010.7 hPa South 3.2 km/h 8 km/h 93 % 0.25 mm
14:37 17.2 °C 16.1 °C 1010.7 hPa SE 1.6 km/h 8 km/h 93 % 0.25 mm
14:42 17.2 °C 16.1 °C 1010.7 hPa ESE 3.2 km/h 8 km/h 93 % 0.25 mm
14:47 17.3 °C 16.2 °C 1010.7 hPa SSW 6.4 km/h 8 km/h 93 % 0.25 mm
14:52 17.2 °C 15.9 °C 1010.7 hPa South 8 km/h 8 km/h 92 % 0.25 mm
14:57 17.2 °C 15.9 °C 1010.7 hPa ESE 4.8 km/h 8 km/h 92 % 0.25 mm
15:02 17.2 °C 16.1 °C 1010.4 hPa South 3.2 km/h 8 km/h 93 % 0.25 mm
15:07 17.2 °C 16.1 °C 1010.4 hPa SE 1.6 km/h 8 km/h 93 % 0 mm
15:12 17.2 °C 16.1 °C 1010 hPa SSE 4.8 km/h 9.7 km/h 93 % 0 mm
15:17 17.2 °C 16.1 °C 1010 hPa SE 3.2 km/h 9.7 km/h 93 % 0 mm
15:22 17.3 °C 16.2 °C 1010 hPa ESE 8 km/h 9.7 km/h 93 % 0 mm
15:27 17.3 °C 16.3 °C 1009.7 hPa SE 6.4 km/h 9.7 km/h 94 % 0 mm
15:33 17.4 °C 16.3 °C 1010 hPa ESE 6.4 km/h 9.7 km/h 93 % 0 mm
15:38 17.4 °C 16.3 °C 1010 hPa ESE 8 km/h 11.3 km/h 93 % 0 mm
15:43 17.4 °C 16.3 °C 1009.7 hPa SE 6.4 km/h 11.3 km/h 93 % 0 mm
15:48 17.4 °C 16.3 °C 1009.7 hPa ENE 3.2 km/h 12.9 km/h 93 % 0 mm
15:53 17.4 °C 16.3 °C 1009.7 hPa ESE 3.2 km/h 12.9 km/h 93 % 0 mm
15:58 17.4 °C 16.4 °C 1009.7 hPa South 3.2 km/h 12.9 km/h 94 % 0 mm
16:03 17.4 °C 16.3 °C 1009.7 hPa East 3.2 km/h 12.9 km/h 93 % 0 mm
16:08 17.4 °C 16.4 °C 1009.7 hPa ESE 8 km/h 14.5 km/h 94 % 0 mm
16:13 17.4 °C 16.3 °C 1010 hPa East 4.8 km/h 19.3 km/h 93 % 0 mm
16:18 17.3 °C 16.2 °C 1009.7 hPa SE 3.2 km/h 20.9 km/h 93 % 0 mm
16:23 17.2 °C 16.1 °C 1010 hPa SE 4.8 km/h 20.9 km/h 93 % 0 mm
16:28 17.2 °C 16.1 °C 1010 hPa SE 8 km/h 20.9 km/h 93 % 0 mm
16:33 17.2 °C 16.1 °C 1010 hPa East 3.2 km/h 16.1 km/h 93 % 0 mm
16:38 17 °C 15.9 °C 1009.7 hPa ESE 4.8 km/h 16.1 km/h 93 % 0 mm
16:43 16.9 °C 15.8 °C 1009.7 hPa ESE 11.3 km/h 16.1 km/h 93 % 0 mm
16:48 17.1 °C 15.8 °C 1009.7 hPa SSE 1.6 km/h 16.1 km/h 92 % 0 mm
16:53 17.2 °C 16.1 °C 1009.4 hPa SE 12.9 km/h 16.1 km/h 93 % 0 mm
16:58 17.4 °C 16.1 °C 1009.4 hPa ESE 9.7 km/h 16.1 km/h 92 % 0 mm
17:03 17.4 °C 15.9 °C 1009.7 hPa SE 4.8 km/h 16.1 km/h 91 % 0 mm
17:08 17.3 °C 15.6 °C 1009.7 hPa SE 12.9 km/h 16.1 km/h 90 % 0 mm
17:13 17.2 °C 15.5 °C 1009.7 hPa East 9.7 km/h 16.1 km/h 90 % 0 mm
17:18 17.2 °C 15.5 °C 1009.7 hPa SSE 12.9 km/h 17.7 km/h 90 % 0 mm
17:23 17.1 °C 15.4 °C 1009.7 hPa SSE 8 km/h 19.3 km/h 90 % 0 mm
17:28 17 °C 15.5 °C 1009.7 hPa East 8 km/h 19.3 km/h 91 % 0 mm
17:33 16.9 °C 15.4 °C 1009.7 hPa ESE 8 km/h 19.3 km/h 91 % 0 mm
17:38 16.9 °C 15.4 °C 1009.7 hPa ESE 1.6 km/h 16.1 km/h 91 % 0 mm
17:43 16.9 °C 15.4 °C 1009.7 hPa ESE 6.4 km/h 16.1 km/h 91 % 0 mm
17:48 16.8 °C 15.3 °C 1009.7 hPa East 8 km/h 12.9 km/h 91 % 0 mm
17:53 16.8 °C 15.3 °C 1009.7 hPa ESE 3.2 km/h 16.1 km/h 91 % 0 mm
17:58 16.8 °C 15.3 °C 1009.4 hPa ESE 6.4 km/h 16.1 km/h 91 % 0 mm
18:03 16.7 °C 15.2 °C 1009.4 hPa ENE 4.8 km/h 16.1 km/h 91 % 0 mm
18:08 16.6 °C 15.3 °C 1009.4 hPa ESE 8 km/h 9.7 km/h 92 % 0 mm
18:13 16.5 °C 15.2 °C 1009.4 hPa SSE 3.2 km/h 9.7 km/h 92 % 0 mm
18:18 16.4 °C 15.1 °C 1009.4 hPa ESE 3.2 km/h 9.7 km/h 92 % 0 mm
18:23 16.3 °C 15 °C 1009.4 hPa ESE 4.8 km/h 8 km/h 92 % 0 mm
18:28 16.3 °C 15 °C 1009.7 hPa ESE 3.2 km/h 8 km/h 92 % 0 mm
18:33 16.2 °C 14.9 °C 1009.4 hPa ESE 3.2 km/h 11.3 km/h 92 % 0 mm
18:38 16.2 °C 15.1 °C 1009.4 hPa NE 8 km/h 11.3 km/h 93 % 0 mm
18:43 16.1 °C 15 °C 1009.4 hPa SE 3.2 km/h 11.3 km/h 93 % 0 mm
18:48 16.1 °C 15 °C 1009.4 hPa SE 4.8 km/h 11.3 km/h 93 % 0 mm
18:54 16 °C 14.9 °C 1009.4 hPa ESE 1.6 km/h 11.3 km/h 93 % 0 mm
18:59 15.9 °C 14.8 °C 1009.4 hPa ESE 1.6 km/h 9.7 km/h 93 % 0 mm
19:04 15.8 °C 14.7 °C 1009.4 hPa East 3.2 km/h 9.7 km/h 93 % 0 mm
19:09 15.8 °C 14.7 °C 1009.4 hPa East 1.6 km/h 8 km/h 93 % 0 mm
19:14 15.7 °C 14.6 °C 1009.4 hPa ESE 1.6 km/h 8 km/h 93 % 0 mm
19:19 15.7 °C 14.6 °C 1009.4 hPa South 1.6 km/h 8 km/h 93 % 0 mm
19:24 15.6 °C 14.5 °C 1009.4 hPa SE 1.6 km/h 6.4 km/h 93 % 0 mm
19:29 15.5 °C 14.5 °C 1009.4 hPa SE 1.6 km/h 6.4 km/h 94 % 0 mm
19:34 15.5 °C 14.5 °C 1009.4 hPa East 3.2 km/h 6.4 km/h 94 % 0 mm
19:39 15.4 °C 14.4 °C 1009.4 hPa ESE 3.2 km/h 6.4 km/h 94 % 0 mm
19:44 15.4 °C 14.4 °C 1009.4 hPa ESE 1.6 km/h 6.4 km/h 94 % 0 mm
19:49 15.3 °C 14.3 °C 1009.4 hPa East 1.6 km/h 4.8 km/h 94 % 0 mm
19:54 15.3 °C 14.3 °C 1009.4 hPa Calm   4.8 km/h 94 % 0 mm
19:59 15.2 °C 14.2 °C 1009.7 hPa Calm   4.8 km/h 94 % 0 mm
20:04 15.2 °C 14.2 °C 1009.7 hPa ESE 1.6 km/h 4.8 km/h 94 % 0 mm
20:09 15.1 °C 14.1 °C 1009.7 hPa Calm   4.8 km/h 94 % 0 mm
20:14 15.1 °C 14.1 °C 1009.7 hPa SE 1.6 km/h 4.8 km/h 94 % 0 mm
20:19 15.1 °C 14.3 °C 1009.7 hPa Calm   3.2 km/h 95 % 0 mm
20:24 15 °C 14.2 °C 1009.7 hPa Calm   4.8 km/h 95 % 0 mm
20:29 14.9 °C 14.1 °C 1009.7 hPa Calm   4.8 km/h 95 % 0 mm
20:34 14.9 °C 14.1 °C 1010 hPa East 3.2 km/h 4.8 km/h 95 % 0 mm
20:39 14.9 °C 14.1 °C 1010 hPa SE 4.8 km/h 4.8 km/h 95 % 0 mm
20:44 14.9 °C 14.1 °C 1010 hPa SE 3.2 km/h 4.8 km/h 95 % 0 mm
20:49 15 °C 14.4 °C 1010 hPa SE 3.2 km/h 4.8 km/h 96 % 0 mm
20:54 15.1 °C 14.5 °C 1010 hPa SSE 4.8 km/h 6.4 km/h 96 % 0 mm
20:59 15.2 °C 14.6 °C 1010 hPa SSE 3.2 km/h 6.4 km/h 96 % 0 mm
21:04 15.2 °C 14.6 °C 1010.4 hPa ESE 6.4 km/h 9.7 km/h 96 % 0 mm
21:09 15.3 °C 14.7 °C 1010 hPa East 4.8 km/h 9.7 km/h 96 % 0 mm
21:14 15.4 °C 14.8 °C 1010 hPa South 11.3 km/h 14.5 km/h 96 % 0 mm
21:19 15.4 °C 14.8 °C 1010 hPa SSE 3.2 km/h 14.5 km/h 96 % 0 mm
21:24 15.4 °C 14.8 °C 1010 hPa SE 3.2 km/h 14.5 km/h 96 % 0 mm
21:29 15.5 °C 14.9 °C 1010 hPa SE 4.8 km/h 17.7 km/h 96 % 0 mm
21:34 15.5 °C 14.9 °C 1010 hPa SE 6.4 km/h 17.7 km/h 96 % 0 mm
21:39 15.4 °C 14.6 °C 1010.4 hPa SE 8 km/h 17.7 km/h 95 % 0 mm
21:44 15.4 °C 14.6 °C 1010.4 hPa ENE 3.2 km/h 14.5 km/h 95 % 0 mm
21:49 15.4 °C 14.6 °C 1010.4 hPa South 6.4 km/h 14.5 km/h 95 % 0 mm
21:54 15.3 °C 14.5 °C 1010.4 hPa East 3.2 km/h 11.3 km/h 95 % 0 mm
22:00 15.3 °C 14.5 °C 1010.4 hPa SE 4.8 km/h 11.3 km/h 95 % 0 mm
22:05 15.3 °C 14.5 °C 1010.4 hPa ENE 1.6 km/h 11.3 km/h 95 % 0 mm
22:10 15.2 °C 14.4 °C 1010.4 hPa East 8 km/h 11.3 km/h 95 % 0 mm
22:15 15.2 °C 14.4 °C 1010.4 hPa SE 3.2 km/h 12.9 km/h 95 % 0 mm
22:20 15.2 °C 14.4 °C 1010.4 hPa ESE 1.6 km/h 12.9 km/h 95 % 0 mm
22:25 15.1 °C 14.3 °C 1010.4 hPa SE 3.2 km/h 12.9 km/h 95 % 0 mm
22:30 15.1 °C 14.3 °C 1010 hPa East 9.7 km/h 9.7 km/h 95 % 0 mm
22:35 15 °C 14.2 °C 1010 hPa ESE 4.8 km/h 11.3 km/h 95 % 0 mm
22:40 15 °C 14.2 °C 1010 hPa ESE 4.8 km/h 11.3 km/h 95 % 0 mm
22:45 14.9 °C 14.1 °C 1010 hPa SE 6.4 km/h 11.3 km/h 95 % 0 mm
22:50 14.9 °C 14.1 °C 1010 hPa ESE 1.6 km/h 11.3 km/h 95 % 0 mm
22:55 14.8 °C 14 °C 1010 hPa SE 3.2 km/h 9.7 km/h 95 % 0 mm
23:00 14.8 °C 14 °C 1010 hPa ESE 1.6 km/h 8 km/h 95 % 0 mm
23:05 14.7 °C 13.9 °C 1010 hPa SE 1.6 km/h 4.8 km/h 95 % 0 mm
23:10 14.7 °C 13.9 °C 1009.7 hPa ESE 1.6 km/h 6.4 km/h 95 % 0 mm
23:15 14.6 °C 13.8 °C 1009.7 hPa SSE 1.6 km/h 6.4 km/h 95 % 0 mm
23:25 14.5 °C 13.7 °C 1009.4 hPa Calm   9.7 km/h 95 % 0 mm
23:30 14.4 °C 13.6 °C 1009.4 hPa Calm   9.7 km/h 95 % 0 mm
23:35 14.4 °C 13.6 °C 1009.4 hPa Calm   6.4 km/h 95 % 0 mm
23:40 14.4 °C 13.6 °C 1009.4 hPa ESE 1.6 km/h 4.8 km/h 95 % 0 mm
23:45 14.4 °C 13.6 °C 1009.4 hPa Calm   4.8 km/h 95 % 0 mm
23:50 14.3 °C 13.5 °C 1009.4 hPa Calm   4.8 km/h 95 % 0 mm
23:55 14.3 °C 13.5 °C 1009 hPa SE 1.6 km/h 6.4 km/h 95 % 0 mm
Spring, Texas: Villages of Bridgestone
Compliments of Weather Underground - 2.75 mb

Script developed by  Jim McMurry - jmcmurry@mwt.net Adapted for the template by  Wim van der Kuil - Leuven-Template.eu

You find our weather info also at:

UK Metoffice

WeatherCloud

Weather Underground

Mid-South Weather Network

AWEKAS

Citizen Weather Observer Program (CWOP)

HAMweather, WeatherForYou, PWS Weather

Equipment we use:

Weather-station
Davis Vantage Vue

Weather-program
Meteohub

Weather-server
Debian 7.9 x86 (Guest)

Provider
DreamHost

Davis Vantage Vue

Meteohub

Debian 7.9 x86 (Guest)

DreamHost